createdAt,value
2022-08-20T00:00:23.817Z,59.58
2022-08-20T00:02:54.363Z,53.55
2022-08-20T00:05:26.649Z,55.58
2022-08-20T00:10:23.795Z,61.95
2022-08-20T00:12:52.105Z,57.70
2022-08-20T00:15:25.885Z,53.58
2022-08-20T00:17:54.685Z,54.80
2022-08-20T00:20:26.041Z,52.83
2022-08-20T00:22:54.122Z,52.22
2022-08-20T00:25:22.244Z,55.17
2022-08-20T00:27:50.373Z,47.10
2022-08-20T00:30:18.992Z,51.03
2022-08-20T00:32:51.036Z,52.22
2022-08-20T00:35:21.348Z,56.72
2022-08-20T00:37:49.409Z,52.33
2022-08-20T00:40:23.279Z,50.75
2022-08-20T00:42:55.444Z,50.95
2022-08-20T00:45:23.428Z,54.53
2022-08-20T00:47:55.291Z,53.65
2022-08-20T00:50:28.675Z,50.78
2022-08-20T00:52:57.052Z,50.30
2022-08-20T00:55:31.082Z,46.10
2022-08-20T00:58:03.734Z,46.85
2022-08-20T01:03:02.508Z,50.33
2022-08-20T01:05:31.079Z,47.20
2022-08-20T01:07:59.343Z,48.22
2022-08-20T01:10:29.701Z,48.22
2022-08-20T01:12:59.939Z,51.75
2022-08-20T01:15:31.748Z,43.70
2022-08-20T01:18:02.373Z,48.20
2022-08-20T01:20:34.109Z,52.40
2022-08-20T01:23:24.562Z,47.40
2022-08-20T01:25:55.734Z,49.97
2022-08-20T01:28:25.785Z,52.70
2022-08-20T01:30:54.672Z,55.97
2022-08-20T01:33:24.022Z,58.20
2022-08-20T01:35:53.451Z,54.65
2022-08-20T01:38:22.124Z,53.05
2022-08-20T01:41:15.318Z,57.88
2022-08-20T01:43:43.409Z,51.35
2022-08-20T01:46:11.802Z,55.13
2022-08-20T01:48:41.793Z,58.30
2022-08-20T01:51:13.621Z,55.33
2022-08-20T01:53:44.345Z,59.22
2022-08-20T01:56:17.619Z,56.53
2022-08-20T01:58:49.455Z,51.30
2022-08-20T02:01:26.164Z,52.97
2022-08-20T02:03:55.091Z,48.72
2022-08-20T02:06:25.674Z,51.22
2022-08-20T02:08:56.101Z,53.75
2022-08-20T02:11:25.623Z,53.88
2022-08-20T02:13:54.504Z,53.38
2022-08-20T02:16:25.553Z,55.33
2022-08-20T02:18:56.157Z,54.78
2022-08-20T02:21:25.199Z,62.55
2022-08-20T02:23:53.221Z,59.97
2022-08-20T02:26:21.501Z,57.95
2022-08-20T02:28:52.556Z,57.53
2022-08-20T02:31:22.316Z,61.45
2022-08-20T02:34:14.883Z,64.10
2022-08-20T02:36:39.731Z,60.92
2022-08-20T02:39:10.407Z,69.43
2022-08-20T02:41:39.534Z,63.33
2022-08-20T02:44:09.855Z,68.65
2022-08-20T02:46:38.356Z,62.60
2022-08-20T02:49:06.915Z,69.45
2022-08-20T02:51:35.002Z,65.20
2022-08-20T02:54:03.122Z,69.85
2022-08-20T02:56:31.112Z,66.70
2022-08-20T02:58:59.087Z,66.63
2022-08-20T03:01:28.558Z,61.55
2022-08-20T03:03:59.029Z,74.40
2022-08-20T03:06:27.354Z,70.93
2022-08-20T03:08:55.489Z,67.43
2022-08-20T03:11:23.504Z,73.10
2022-08-20T03:13:52.170Z,65.93
2022-08-20T03:16:20.206Z,69.22
2022-08-20T03:18:52.096Z,77.57
2022-08-20T03:21:20.393Z,73.47
2022-08-20T03:23:48.508Z,70.78
2022-08-20T03:26:17.389Z,76.22
2022-08-20T03:28:45.423Z,75.55
2022-08-20T03:31:17.433Z,81.00
2022-08-20T03:33:52.962Z,73.47
2022-08-20T03:36:28.731Z,78.97
2022-08-20T03:38:57.735Z,80.15
2022-08-20T03:41:26.079Z,78.70
2022-08-20T03:43:54.570Z,76.00
2022-08-20T03:46:23.663Z,81.55
2022-08-20T03:48:58.719Z,78.07
2022-08-20T03:51:29.850Z,78.22
2022-08-20T03:53:57.948Z,74.25
2022-08-20T03:56:26.834Z,79.50
2022-08-20T03:58:54.988Z,74.38
2022-08-20T04:01:44.460Z,85.65
2022-08-20T04:04:12.118Z,81.47
2022-08-20T04:06:42.410Z,81.88
2022-08-20T04:09:11.969Z,77.05
2022-08-20T04:11:40.704Z,81.65
2022-08-20T04:14:10.414Z,72.82
2022-08-20T04:16:40.531Z,88.18
2022-08-20T04:19:09.194Z,82.63
2022-08-20T04:21:37.882Z,71.28
2022-08-20T04:24:07.497Z,77.80
2022-08-20T04:26:37.251Z,73.70
2022-08-20T04:29:05.528Z,78.38
2022-08-20T04:31:34.734Z,79.10
2022-08-20T04:34:03.499Z,70.72
2022-08-20T04:36:31.617Z,78.10
2022-08-20T04:38:59.685Z,77.07
2022-08-20T04:41:29.053Z,79.63
2022-08-20T04:43:58.125Z,72.63
2022-08-20T04:46:28.746Z,74.45
2022-08-20T04:48:58.184Z,78.43
2022-08-20T04:51:26.886Z,74.72
2022-08-20T04:53:56.344Z,78.70
2022-08-20T04:56:26.285Z,86.85
2022-08-20T04:58:58.867Z,78.95
2022-08-20T05:01:27.331Z,85.90
2022-08-20T05:03:55.889Z,79.90
2022-08-20T05:06:28.577Z,84.05
2022-08-20T05:08:58.925Z,82.32
2022-08-20T05:11:33.088Z,77.65
2022-08-20T05:14:08.559Z,85.65
2022-08-20T05:16:41.117Z,86.38
2022-08-20T05:19:12.115Z,78.75
2022-08-20T05:21:40.910Z,85.15
2022-08-20T05:24:10.106Z,84.72
2022-08-20T05:26:38.255Z,79.50
2022-08-20T05:29:07.858Z,77.30
2022-08-20T05:31:36.214Z,77.80
2022-08-20T05:34:09.725Z,86.35
2022-08-20T05:36:39.656Z,78.93
2022-08-20T05:39:09.615Z,75.38
2022-08-20T05:41:37.913Z,84.20
2022-08-20T05:44:10.714Z,75.57
2022-08-20T05:46:40.796Z,80.43
2022-08-20T05:49:09.595Z,74.03
2022-08-20T05:51:37.806Z,78.85
2022-08-20T05:54:06.740Z,77.78
2022-08-20T05:56:35.267Z,79.97
2022-08-20T05:59:05.255Z,80.07
2022-08-20T06:01:36.707Z,78.43
2022-08-20T06:04:23.257Z,77.53
2022-08-20T06:06:52.747Z,76.32
2022-08-20T06:09:28.618Z,75.05
2022-08-20T06:12:02.228Z,84.47
2022-08-20T06:14:30.871Z,74.25
2022-08-20T06:17:05.554Z,75.45
2022-08-20T06:19:34.747Z,78.28
2022-08-20T06:22:08.642Z,73.65
2022-08-20T06:24:47.291Z,74.75
2022-08-20T06:27:16.719Z,83.40
2022-08-20T06:29:44.768Z,80.72
2022-08-20T06:32:14.272Z,78.75
2022-08-20T06:34:50.149Z,83.25
2022-08-20T06:37:21.802Z,82.28
2022-08-20T06:39:50.527Z,83.65
2022-08-20T06:42:20.931Z,83.55
2022-08-20T06:44:50.879Z,84.78
2022-08-20T06:47:21.651Z,84.53
2022-08-20T06:49:49.892Z,81.82
2022-08-20T06:52:18.661Z,81.97
2022-08-20T06:54:46.900Z,78.53
2022-08-20T06:57:14.972Z,77.22
2022-08-20T06:59:43.016Z,82.72
2022-08-20T07:02:11.106Z,78.20
2022-08-20T07:04:40.440Z,80.63
2022-08-20T07:07:16.878Z,83.20
2022-08-20T07:09:45.060Z,76.45
2022-08-20T07:12:13.131Z,80.30
2022-08-20T07:14:41.227Z,75.30
2022-08-20T07:17:11.358Z,72.32
2022-08-20T07:19:41.734Z,70.15
2022-08-20T07:22:09.721Z,67.03
2022-08-20T07:24:41.121Z,70.72
2022-08-20T07:27:10.036Z,68.68
2022-08-20T07:29:55.739Z,66.90
2022-08-20T07:32:36.875Z,62.85
2022-08-20T07:35:11.940Z,68.85
2022-08-20T07:37:41.481Z,68.05
2022-08-20T07:40:12.899Z,64.18
2022-08-20T07:42:41.448Z,62.90
2022-08-20T07:45:11.114Z,64.28
2022-08-20T07:47:39.368Z,64.32
2022-08-20T07:50:10.501Z,60.22
2022-08-20T07:52:38.520Z,60.78
2022-08-20T07:55:08.840Z,56.92
2022-08-20T07:57:37.498Z,56.58
2022-08-20T08:00:08.448Z,55.83
2022-08-20T08:02:37.268Z,54.42
2022-08-20T08:05:06.564Z,54.75
2022-08-20T08:07:36.559Z,51.67
2022-08-20T08:10:07.713Z,48.03
2022-08-20T08:12:38.744Z,50.95
2022-08-20T08:15:09.552Z,46.60
2022-08-20T08:17:38.703Z,52.47
2022-08-20T08:20:07.981Z,47.72
2022-08-20T08:22:37.291Z,45.22
2022-08-20T08:25:06.277Z,43.83
2022-08-20T08:27:34.373Z,44.40
2022-08-20T08:30:03.039Z,41.40
2022-08-20T08:32:32.251Z,49.83
2022-08-20T08:35:04.787Z,42.08
2022-08-20T08:37:32.798Z,41.47
2022-08-20T08:40:02.673Z,42.55
2022-08-20T08:42:40.047Z,42.30
2022-08-20T08:45:11.643Z,40.80
2022-08-20T08:47:41.254Z,47.65
2022-08-20T08:50:43.853Z,40.17
2022-08-20T08:53:17.342Z,33.75
2022-08-20T08:55:46.665Z,37.25
2022-08-20T08:58:17.040Z,39.00
2022-08-20T09:00:56.426Z,36.20
2022-08-20T09:03:32.801Z,34.42
2022-08-20T09:06:02.645Z,30.15
2022-08-20T09:08:34.092Z,32.10
2022-08-20T09:11:06.139Z,30.08
2022-08-20T09:13:34.480Z,34.67
2022-08-20T09:16:02.520Z,33.95
2022-08-20T09:18:30.480Z,32.00
2022-08-20T09:20:58.450Z,34.08
2022-08-20T09:23:26.402Z,27.63
2022-08-20T09:25:54.461Z,24.98
2022-08-20T09:28:23.739Z,28.45
2022-08-20T09:30:52.576Z,27.00
2022-08-20T09:33:20.661Z,26.08
2022-08-20T09:35:49.585Z,27.95
2022-08-20T09:38:17.722Z,24.52
2022-08-20T09:40:45.761Z,25.30
2022-08-20T09:43:13.865Z,25.58
2022-08-20T09:45:43.148Z,23.35
2022-08-20T09:48:11.180Z,23.40
2022-08-20T09:50:43.144Z,22.48
2022-08-20T09:53:11.928Z,25.20
2022-08-20T09:55:41.572Z,21.70
2022-08-20T09:58:16.633Z,23.67
2022-08-20T10:00:45.984Z,25.17
2022-08-20T10:03:13.980Z,25.88
2022-08-20T10:05:42.128Z,29.15
2022-08-20T10:08:11.381Z,25.23
2022-08-20T10:10:39.365Z,24.60
2022-08-20T10:13:07.371Z,24.10
2022-08-20T10:15:36.550Z,21.80
2022-08-20T10:18:07.803Z,25.00
2022-08-20T10:20:36.544Z,20.33
2022-08-20T10:23:05.413Z,21.23
2022-08-20T10:25:33.554Z,20.83
2022-08-20T10:28:01.534Z,17.08
2022-08-20T10:30:29.659Z,19.50
2022-08-20T10:32:57.659Z,20.80
2022-08-20T10:35:27.159Z,15.32
2022-08-20T10:37:55.369Z,19.20
2022-08-20T10:40:23.786Z,17.77
2022-08-20T10:42:52.095Z,21.33
2022-08-20T10:45:20.221Z,14.90
2022-08-20T10:47:48.223Z,14.48
2022-08-20T10:50:17.267Z,15.10
2022-08-20T10:52:47.251Z,13.05
2022-08-20T10:55:15.930Z,15.18
2022-08-20T10:57:44.969Z,12.32
2022-08-20T11:00:15.780Z,12.70
2022-08-20T11:02:44.050Z,12.18
2022-08-20T11:05:12.078Z,12.52
2022-08-20T11:07:54.854Z,10.35
2022-08-20T11:10:27.233Z,11.38
2022-08-20T11:12:55.435Z,9.75
2022-08-20T11:15:23.769Z,10.52
2022-08-20T11:17:51.782Z,8.05
2022-08-20T11:20:21.502Z,8.93
2022-08-20T11:22:49.536Z,8.13
2022-08-20T11:25:17.753Z,6.53
2022-08-20T11:27:49.212Z,8.27
2022-08-20T11:30:20.359Z,8.25
2022-08-20T11:32:48.393Z,8.60
2022-08-20T11:38:05.588Z,9.00
2022-08-20T11:40:35.565Z,10.35
2022-08-20T11:43:20.292Z,11.73
2022-08-20T11:45:51.035Z,12.52
2022-08-20T11:48:19.215Z,13.27
2022-08-20T11:50:47.776Z,10.55
2022-08-20T11:53:16.008Z,10.55
2022-08-20T11:55:44.650Z,12.93
2022-08-20T11:58:13.985Z,12.48
2022-08-20T12:00:42.444Z,10.00
2022-08-20T12:03:11.583Z,13.40
2022-08-20T12:05:41.199Z,16.55
2022-08-20T12:08:10.080Z,10.80
2022-08-20T12:10:53.423Z,11.05
2022-08-20T12:13:23.661Z,10.50
2022-08-20T12:15:59.881Z,11.43
2022-08-20T12:18:28.046Z,15.05
2022-08-20T12:20:56.106Z,13.23
2022-08-20T12:23:24.130Z,11.70
2022-08-20T12:25:52.112Z,10.55
2022-08-20T12:28:20.265Z,14.40
2022-08-20T12:30:55.371Z,12.32
2022-08-20T12:33:23.376Z,11.00
2022-08-20T12:35:51.652Z,11.57
2022-08-20T12:38:19.761Z,10.23
2022-08-20T12:40:47.810Z,12.18
2022-08-20T12:43:15.890Z,10.73
2022-08-20T12:45:43.908Z,16.90
2022-08-20T12:48:14.227Z,11.75
2022-08-20T12:50:45.632Z,13.95
2022-08-20T12:53:13.617Z,15.63
2022-08-20T12:55:41.654Z,13.70
2022-08-20T12:58:10.934Z,16.48
2022-08-20T13:00:43.236Z,11.88
2022-08-20T13:03:13.787Z,13.60
2022-08-20T13:05:42.052Z,15.15
2022-08-20T13:08:11.653Z,13.13
2022-08-20T13:10:45.611Z,15.73
2022-08-20T13:13:14.039Z,17.83
2022-08-20T13:15:42.313Z,13.75
2022-08-20T13:18:10.327Z,14.13
2022-08-20T13:20:39.627Z,18.65
2022-08-20T13:23:07.655Z,13.70
2022-08-20T13:25:35.701Z,18.65
2022-08-20T13:28:05.918Z,17.83
2022-08-20T13:30:35.012Z,15.18
2022-08-20T13:33:03.052Z,18.13
2022-08-20T13:35:31.528Z,18.92
2022-08-20T13:38:00.867Z,17.77
2022-08-20T13:40:29.253Z,17.48
2022-08-20T13:42:57.435Z,17.25
2022-08-20T13:45:25.625Z,17.85
2022-08-20T13:47:55.144Z,21.45
2022-08-20T13:50:25.371Z,17.75
2022-08-20T13:52:53.479Z,19.33
2022-08-20T13:55:24.754Z,21.23
2022-08-20T13:57:53.808Z,20.48
2022-08-20T14:00:30.956Z,18.52
2022-08-20T14:03:00.630Z,18.77
2022-08-20T14:05:28.912Z,18.55
2022-08-20T14:07:56.900Z,19.08
2022-08-20T14:10:31.318Z,15.48
2022-08-20T14:12:59.639Z,18.23
2022-08-20T14:15:27.807Z,14.98
2022-08-20T14:17:57.861Z,19.40
2022-08-20T14:20:29.111Z,15.10
2022-08-20T14:22:58.198Z,16.33
2022-08-20T14:25:28.064Z,18.67
2022-08-20T14:27:56.709Z,17.38
2022-08-20T14:30:27.905Z,21.55
2022-08-20T14:32:56.392Z,15.38
2022-08-20T14:35:24.759Z,20.67
2022-08-20T14:37:55.473Z,15.15
2022-08-20T14:40:24.973Z,17.30
2022-08-20T14:42:55.015Z,17.08
2022-08-20T14:45:23.531Z,15.82
2022-08-20T14:47:54.049Z,15.70
2022-08-20T14:50:25.042Z,16.80
2022-08-20T14:52:53.358Z,15.13
2022-08-20T14:55:23.654Z,17.67
2022-08-20T14:57:51.782Z,17.42
2022-08-20T15:00:23.935Z,15.18
2022-08-20T15:05:20.075Z,13.60
2022-08-20T15:07:51.813Z,13.70
2022-08-20T15:10:24.644Z,13.23
2022-08-20T15:12:52.624Z,15.20
2022-08-20T15:15:22.513Z,14.25
2022-08-20T15:17:52.352Z,14.52
2022-08-20T15:20:22.756Z,12.57
2022-08-20T15:22:51.128Z,15.55
2022-08-20T15:25:23.018Z,14.88
2022-08-20T15:27:51.253Z,14.68
2022-08-20T15:30:21.043Z,14.77
2022-08-20T15:32:54.836Z,16.58
2022-08-20T15:35:23.844Z,14.23
2022-08-20T15:37:54.717Z,26.85
2022-08-20T15:40:28.080Z,14.75
2022-08-20T15:42:56.767Z,14.30
2022-08-20T15:45:25.265Z,15.80
2022-08-20T15:47:56.823Z,19.08
2022-08-20T15:50:57.215Z,18.88
2022-08-20T15:53:29.865Z,16.13
2022-08-20T15:56:03.281Z,15.77
2022-08-20T15:58:37.267Z,17.50
2022-08-20T16:01:24.663Z,16.40
2022-08-20T16:04:23.057Z,14.95
2022-08-20T16:06:53.707Z,13.88
2022-08-20T16:09:38.968Z,17.27
2022-08-20T16:12:11.333Z,14.52
2022-08-20T16:14:41.312Z,16.70
2022-08-20T16:17:11.113Z,14.95
2022-08-20T16:19:48.051Z,14.05
2022-08-20T16:22:17.472Z,18.73
2022-08-20T16:24:45.641Z,18.63
2022-08-20T16:27:18.158Z,15.43
2022-08-20T16:29:53.657Z,14.98
2022-08-20T16:32:37.634Z,15.73
2022-08-20T16:35:21.157Z,15.75
2022-08-20T16:37:57.282Z,19.80
2022-08-20T16:40:27.968Z,19.83
2022-08-20T16:42:58.542Z,18.35
2022-08-20T16:45:28.615Z,15.35
2022-08-20T16:48:01.195Z,20.70
2022-08-20T16:50:35.306Z,14.02
2022-08-20T16:53:03.251Z,15.02
2022-08-20T16:55:31.317Z,21.13
2022-08-20T16:57:59.408Z,14.82
2022-08-20T17:00:34.929Z,15.32
2022-08-20T17:03:05.527Z,16.48
2022-08-20T17:05:46.026Z,20.58
2022-08-20T17:08:21.598Z,17.33
2022-08-20T17:10:58.792Z,20.73
2022-08-20T17:13:30.168Z,17.42
2022-08-20T17:15:59.947Z,15.35
2022-08-20T17:18:31.631Z,14.98
2022-08-20T17:21:06.228Z,12.75
2022-08-20T17:23:54.824Z,19.58
2022-08-20T17:26:31.108Z,11.65
2022-08-20T17:29:01.482Z,12.23
2022-08-20T17:31:38.814Z,12.43
2022-08-20T17:34:14.480Z,11.05
2022-08-20T17:36:51.545Z,8.93
2022-08-20T17:39:21.445Z,13.20
2022-08-20T17:41:51.687Z,14.48
2022-08-20T17:44:22.323Z,9.18
2022-08-20T17:46:50.749Z,11.40
2022-08-20T17:49:21.161Z,11.93
2022-08-20T17:51:53.632Z,8.63
2022-08-20T17:54:22.932Z,12.23
2022-08-20T17:56:54.135Z,11.00
2022-08-20T17:59:59.799Z,8.85
2022-08-20T18:02:14.948Z,12.00
2022-08-20T18:04:44.007Z,7.95
2022-08-20T18:07:19.351Z,5.75
2022-08-20T18:09:51.824Z,6.30
2022-08-20T18:12:33.630Z,6.20
2022-08-20T18:15:10.169Z,10.40
2022-08-20T18:17:58.192Z,4.13
2022-08-20T18:20:40.427Z,5.32
2022-08-20T18:23:12.893Z,4.10
2022-08-20T18:25:45.841Z,4.10
2022-08-20T18:28:17.145Z,4.28
2022-08-20T18:30:50.666Z,7.35
2022-08-20T18:33:27.711Z,4.63
2022-08-20T18:36:05.758Z,4.93
2022-08-20T18:38:37.181Z,3.67
2022-08-20T18:41:15.013Z,4.13
2022-08-20T18:43:44.012Z,4.25
2022-08-20T18:46:22.190Z,4.25
2022-08-20T18:48:56.260Z,6.10
2022-08-20T18:51:30.099Z,5.25
2022-08-20T18:53:59.472Z,3.90
2022-08-20T18:56:36.848Z,5.28
2022-08-20T18:59:08.064Z,3.85
2022-08-20T19:01:38.003Z,3.83
2022-08-20T19:04:17.835Z,5.22
2022-08-20T19:06:49.242Z,4.50
2022-08-20T19:09:31.437Z,7.77
2022-08-20T19:12:07.548Z,4.95
2022-08-20T19:14:51.471Z,5.90
2022-08-20T19:17:26.782Z,6.75
2022-08-20T19:20:00.361Z,5.90
2022-08-20T19:22:28.704Z,5.40
2022-08-20T19:25:00.558Z,7.55
2022-08-20T19:27:29.726Z,8.10
2022-08-20T19:29:57.918Z,6.60
2022-08-20T19:32:28.067Z,5.53
2022-08-20T19:34:58.350Z,6.95
2022-08-20T19:37:39.999Z,6.57
2022-08-20T19:40:28.201Z,10.93
2022-08-20T19:42:58.045Z,5.28
2022-08-20T19:45:29.764Z,6.10
2022-08-20T19:48:27.544Z,6.00
2022-08-20T19:51:04.032Z,7.22
2022-08-20T19:53:34.405Z,7.15
2022-08-20T19:56:06.417Z,71.45
2022-08-20T19:58:35.685Z,58.22
2022-08-20T20:01:05.671Z,182.35
2022-08-20T20:03:35.599Z,15.38
2022-08-20T20:06:16.090Z,7.70
2022-08-20T20:08:51.345Z,9.93
2022-08-20T20:11:24.621Z,8.38
2022-08-20T20:13:53.144Z,6.25
2022-08-20T20:16:22.260Z,10.52
2022-08-20T20:19:03.982Z,6.93
2022-08-20T20:21:41.597Z,8.68
2022-08-20T20:24:10.147Z,7.70
2022-08-20T20:26:41.998Z,8.10
2022-08-20T20:29:13.258Z,9.32
2022-08-20T20:31:50.339Z,6.60
2022-08-20T20:34:19.540Z,9.07
2022-08-20T20:36:48.833Z,8.25
2022-08-20T20:39:30.307Z,8.23
2022-08-20T20:42:01.861Z,9.75
2022-08-20T20:44:37.137Z,10.27
2022-08-20T20:47:07.791Z,7.43
2022-08-20T20:49:49.302Z,7.72
2022-08-20T20:52:22.587Z,9.35
2022-08-20T20:54:50.712Z,9.23
2022-08-20T20:57:36.434Z,11.00
2022-08-20T21:00:09.321Z,8.65
2022-08-20T21:02:37.554Z,7.05
2022-08-20T21:05:06.342Z,9.05
2022-08-20T21:07:34.328Z,6.82
2022-08-20T21:10:02.280Z,7.45
2022-08-20T21:12:31.582Z,8.40
2022-08-20T21:14:59.535Z,6.18
2022-08-20T21:17:27.852Z,8.15
2022-08-20T21:19:55.856Z,7.13
2022-08-20T21:22:23.793Z,6.25
2022-08-20T21:24:51.778Z,9.02
2022-08-20T21:27:22.024Z,7.50
2022-08-20T21:29:51.933Z,6.60
2022-08-20T21:32:20.103Z,8.10
2022-08-20T21:34:48.801Z,7.15
2022-08-20T21:37:17.099Z,8.05
2022-08-20T21:39:45.522Z,8.25
2022-08-20T21:42:28.590Z,7.03
2022-08-20T21:44:59.028Z,9.82
2022-08-20T21:47:27.831Z,14.15
2022-08-20T21:49:55.856Z,8.70
2022-08-20T21:52:23.808Z,8.35
2022-08-20T21:54:53.207Z,11.35
2022-08-20T21:57:23.197Z,9.23
2022-08-20T21:59:51.305Z,8.88
2022-08-20T22:02:21.726Z,9.07
2022-08-20T22:04:53.861Z,8.30
2022-08-20T22:07:22.593Z,7.95
2022-08-20T22:09:50.558Z,10.27
2022-08-20T22:12:21.415Z,8.30
2022-08-20T22:14:49.528Z,12.55
2022-08-20T22:17:17.593Z,9.10
2022-08-20T22:19:47.001Z,9.23
2022-08-20T22:22:15.646Z,9.68
2022-08-20T22:24:45.548Z,15.45
2022-08-20T22:27:13.674Z,9.43
2022-08-20T22:29:41.738Z,9.45
2022-08-20T22:32:09.827Z,10.25
2022-08-20T22:34:38.278Z,10.35
2022-08-20T22:37:08.063Z,10.15
2022-08-20T22:39:36.057Z,14.40
2022-08-20T22:42:04.638Z,9.57
2022-08-20T22:44:32.599Z,12.40
2022-08-20T22:47:03.223Z,12.02
2022-08-20T22:49:33.662Z,14.23
2022-08-20T22:52:01.875Z,10.77
2022-08-20T22:54:31.166Z,11.70
2022-08-20T22:56:59.143Z,10.73
2022-08-20T22:59:27.579Z,12.07
2022-08-20T23:01:55.980Z,12.60
2022-08-20T23:04:26.429Z,12.93
2022-08-20T23:06:55.552Z,12.45
2022-08-20T23:09:24.741Z,12.82
2022-08-20T23:11:54.322Z,13.07
2022-08-20T23:14:22.857Z,13.30
2022-08-20T23:17:00.378Z,12.57
2022-08-20T23:19:28.475Z,11.15
2022-08-20T23:21:56.920Z,13.10
2022-08-20T23:24:24.938Z,11.20
2022-08-20T23:26:54.328Z,10.35
2022-08-20T23:29:25.418Z,10.52
2022-08-20T23:31:54.765Z,9.52
2022-08-20T23:34:23.372Z,9.48
2022-08-20T23:36:52.427Z,11.07
2022-08-20T23:39:20.950Z,9.93
2022-08-20T23:41:48.960Z,14.30
2022-08-20T23:44:26.655Z,12.02
2022-08-20T23:46:56.046Z,8.70
2022-08-20T23:49:24.036Z,8.52
2022-08-20T23:51:52.218Z,12.38
2022-08-20T23:54:20.256Z,8.95
2022-08-20T23:56:48.230Z,12.02
2022-08-20T23:59:16.237Z,9.15
